^^
Datos históricos de la estación: Murcia-Puente Tocinos
Diario Informe para Octubre 12, 2019 Unidades:  Métrico    Ingés   Ambas
Diario Semanal Mensual Anual
  Máxima: Mínima: Promedio:
Temperatura: 26.2 °C 20.2 °C 22.4 °C
Punto de rocio: 20.6 °C 17 °C 18.6 °C
Humedad: 90% 65.6% 79%
Velocidad viento: 15.6km/h 0km/h 6.4km/h
Racha viento: 28.2km/h - -
Viento- - SSE
Presión: 1018.1 hPa 1013.9 hPa -
Precipitación: 0.0 mm    
 
 
Tabla de datos para Octubre 12, 2019
Hora Temperatura Punto de rocio Presión Viento Velocidad viento Racha viento Humedad Intensidad lluvia(por hora) Nubes
00:04 21.3 °C 18.5 °C 1018.0 hPa NO 2.2 km/h 4.8 km/h 84% 0.0 mm
00:09 21.3 °C 18.5 °C 1018.0 hPa NO 2.2 km/h 5.6 km/h 84% 0.0 mm
00:14 21.3 °C 18.5 °C 1018.0 hPa Oeste 2.2 km/h 8 km/h 84% 0.0 mm
00:19 21.3 °C 18.5 °C 1018.1 hPa OSO 2.5 km/h 7.6 km/h 84% 0.0 mm
00:24 21.3 °C 18.5 °C 1018.1 hPa SO 3.9 km/h 8 km/h 84% 0.0 mm
00:29 21.3 °C 18.5 °C 1018.1 hPa SO 3.5 km/h 4.7 km/h 84% 0.0 mm
00:34 21.3 °C 18.5 °C 1018.1 hPa OSO 2.2 km/h 7.4 km/h 84% 0.0 mm
00:39 21.3 °C 18.5 °C 1018.0 hPa Oeste 2.4 km/h 8 km/h 84% 0.0 mm
00:44 21.3 °C 18.5 °C 1018.0 hPa Oeste 3.2 km/h 6.9 km/h 84% 0.0 mm
00:49 21.3 °C 18.5 °C 1018.0 hPa Oeste 3.2 km/h 8 km/h 84% 0.0 mm
00:54 21.3 °C 18.5 °C 1018.0 hPa Oeste 3.2 km/h 6.4 km/h 84% 0.0 mm
00:59 21.3 °C 18.5 °C 1018.0 hPa Oeste 3.2 km/h 7.4 km/h 84% 0.0 mm
01:04 21.2 °C 18.4 °C 1018.0 hPa ONO 3.2 km/h 8 km/h 84% 0.0 mm
01:09 21.2 °C 18.4 °C 1018.0 hPa Oeste 3.2 km/h 6.4 km/h 84% 0.0 mm
01:14 21.2 °C 18.4 °C 1018.0 hPa Oeste 2.9 km/h 7.6 km/h 84% 0.0 mm
01:19 21.3 °C 18.5 °C 1018.0 hPa Oeste 3.1 km/h 8 km/h 84% 0.0 mm
01:24 21.3 °C 18.5 °C 1017.9 hPa Oeste 3.9 km/h 8 km/h 84% 0.0 mm
01:29 21.3 °C 18.5 °C 1017.9 hPa Oeste 3.7 km/h 8 km/h 84% 0.0 mm
01:34 21.3 °C 18.5 °C 1017.9 hPa OSO 3.2 km/h 8 km/h 84% 0.0 mm
01:39 21.3 °C 18.5 °C 1017.8 hPa OSO 3.2 km/h 8 km/h 84% 0.0 mm
01:44 21.3 °C 18.5 °C 1017.8 hPa OSO 2.9 km/h 4.8 km/h 84% 0.0 mm
01:49 21.3 °C 18.3 °C 1017.8 hPa OSO 2.3 km/h 3.2 km/h 83.3% 0.0 mm
01:54 21.3 °C 18.3 °C 1017.6 hPa Calm     83% 0.0 mm
01:59 21.3 °C 18.3 °C 1017.6 hPa Calm     83% 0.0 mm
02:04 21.3 °C 18.3 °C 1017.6 hPa Calm     83% 0.0 mm
02:09 21.2 °C 18.4 °C 1017.3 hPa Calm     83.9% 0.0 mm
02:14 21.2 °C 18.4 °C 1017.3 hPa Calm     84% 0.0 mm
02:19 21.2 °C 18.3 °C 1017.3 hPa Calm     84% 0.0 mm
02:24 21.1 °C 18.3 °C 1017.3 hPa Calm     84% 0.0 mm
02:29 21 °C 18.2 °C 1017.3 hPa Calm   3.9 km/h 84% 0.0 mm
02:34 20.9 °C 18.1 °C 1017.3 hPa Calm   5.8 km/h 84% 0.0 mm
02:39 20.9 °C 18.1 °C 1017.0 hPa OSO 0.6 km/h 6.4 km/h 84.2% 0.0 mm
02:44 20.8 °C 18.2 °C 1017.0 hPa OSO 2.9 km/h 6.4 km/h 85% 0.0 mm
02:49 20.8 °C 18.2 °C 1017.0 hPa OSO 3 km/h 5.6 km/h 85% 0.0 mm
02:54 20.8 °C 18.2 °C 1017.0 hPa OSO 3.2 km/h 4.8 km/h 85% 0.0 mm
02:59 20.8 °C 18.1 °C 1017.0 hPa OSO 3 km/h 4.8 km/h 85% 0.0 mm
03:04 20.7 °C 18.1 °C 1017.0 hPa OSO 2.2 km/h 3.7 km/h 85% 0.0 mm
03:09 20.8 °C 18.2 °C 1017.0 hPa OSO 1.8 km/h 3.7 km/h 85% 0.0 mm
03:14 20.8 °C 18.2 °C 1017.0 hPa Calm   7.4 km/h 85% 0.0 mm
03:19 20.8 °C 18.2 °C 1017.0 hPa OSO 0.5 km/h 8 km/h 85% 0.0 mm
03:24 20.8 °C 18.2 °C 1016.9 hPa OSO 2.9 km/h 4.8 km/h 85% 0.0 mm
03:29 20.8 °C 18.2 °C 1016.9 hPa OSO 2.9 km/h 7.4 km/h 85% 0.0 mm
03:34 20.8 °C 18.2 °C 1016.9 hPa OSO 2.9 km/h 8 km/h 85% 0.0 mm
03:39 20.8 °C 18.2 °C 1016.8 hPa Oeste 3.3 km/h 8 km/h 85% 0.0 mm
03:44 20.8 °C 18.2 °C 1016.8 hPa Oeste 4.7 km/h 8 km/h 85% 0.0 mm
03:49 20.8 °C 18.2 °C 1016.8 hPa Oeste 4.3 km/h 8 km/h 85% 0.0 mm
03:54 20.8 °C 18 °C 1016.6 hPa Oeste 3.2 km/h 4.8 km/h 84.1% 0.0 mm
03:59 20.8 °C 18 °C 1016.6 hPa Oeste 2.5 km/h 3.9 km/h 84% 0.0 mm
04:04 20.8 °C 18 °C 1016.6 hPa Calm   3.2 km/h 84% 0.0 mm
04:09 20.8 °C 18 °C 1016.5 hPa Calm   3.2 km/h 84% 0.0 mm
04:14 20.8 °C 18 °C 1016.5 hPa Calm   4.7 km/h 84% 0.0 mm
04:19 20.8 °C 18 °C 1016.5 hPa Oeste 0.5 km/h 4.8 km/h 84% 0.0 mm
04:24 20.8 °C 18 °C 1016.2 hPa Oeste 2.2 km/h 3.2 km/h 84% 0.0 mm
04:29 20.7 °C 17.9 °C 1016.2 hPa Oeste 1.8 km/h 2.3 km/h 84% 0.0 mm
04:34 20.7 °C 18.1 °C 1016.2 hPa Calm   6.4 km/h 85% 0.0 mm
04:39 20.7 °C 18.1 °C 1016.1 hPa SSE 0.7 km/h 9.3 km/h 85% 0.0 mm
04:44 20.6 °C 18 °C 1016.1 hPa SSE 3.2 km/h 9.7 km/h 85% 0.0 mm
04:49 20.5 °C 17.9 °C 1016.1 hPa Sur 3.6 km/h 8 km/h 85% 0.0 mm
04:54 20.4 °C 17.9 °C 1016.1 hPa SSO 5 km/h 10 km/h 85.7% 0.0 mm
04:59 20.3 °C 17.9 °C 1016.1 hPa SSO 5.3 km/h 9.7 km/h 86% 0.0 mm
05:04 20.3 °C 17.9 °C 1016.2 hPa SSO 6.4 km/h 9.7 km/h 86% 0.0 mm
05:09 20.3 °C 17.9 °C 1016.2 hPa SSO 6.3 km/h 10 km/h 86% 0.0 mm
05:14 20.3 °C 17.9 °C 1016.2 hPa SO 5.8 km/h 9.7 km/h 86% 0.0 mm
05:19 20.3 °C 17.8 °C 1016.2 hPa OSO 5.8 km/h 9.7 km/h 85.2% 0.0 mm
05:24 20.3 °C 17.7 °C 1016.1 hPa Oeste 5.8 km/h 9.7 km/h 84.6% 0.0 mm
05:29 20.4 °C 17.6 °C 1016.1 hPa OSO 5.3 km/h 8 km/h 84% 0.0 mm
05:34 20.4 °C 17.6 °C 1016.1 hPa OSO 3.2 km/h 11.9 km/h 84% 0.0 mm
05:39 20.4 °C 17.4 °C 1016.0 hPa SO 3.9 km/h 11.3 km/h 83.1% 0.0 mm
05:44 20.4 °C 17.4 °C 1016.0 hPa SO 6.4 km/h 9.7 km/h 83% 0.0 mm
05:49 20.4 °C 17.4 °C 1016.0 hPa OSO 6.2 km/h 10 km/h 83% 0.0 mm
05:54 20.4 °C 17.4 °C 1016.0 hPa SO 5 km/h 11.1 km/h 83% 0.0 mm
05:59 20.4 °C 17.3 °C 1016.0 hPa OSO 5.3 km/h 13 km/h 82.7% 0.0 mm
06:04 20.3 °C 17.3 °C 1016.0 hPa OSO 6.4 km/h 12.9 km/h 82.8% 0.0 mm
06:09 20.3 °C 17.3 °C 1016.0 hPa OSO 6.5 km/h 11.3 km/h 83% 0.0 mm
06:14 20.3 °C 17.3 °C 1016.0 hPa OSO 6.5 km/h 8 km/h 83% 0.0 mm
06:19 20.3 °C 17.3 °C 1016.1 hPa OSO 5.7 km/h 7.6 km/h 83% 0.0 mm
06:24 20.3 °C 17.3 °C 1016.1 hPa Sur 2.9 km/h 8 km/h 83% 0.0 mm
06:29 20.3 °C 17.3 °C 1016.1 hPa Sur 3.3 km/h 8.7 km/h 83% 0.0 mm
06:34 20.3 °C 17.3 °C 1016.2 hPa Sur 5 km/h 9.7 km/h 83% 0.0 mm
06:39 20.2 °C 17.2 °C 1016.2 hPa Sur 5 km/h 8 km/h 83% 0.0 mm
06:44 20.2 °C 17.2 °C 1016.2 hPa SSO 5 km/h 9.5 km/h 83% 0.0 mm
06:49 20.2 °C 17.2 °C 1016.2 hPa SSO 5 km/h 9.7 km/h 83% 0.0 mm
06:54 20.2 °C 17.3 °C 1016.1 hPa SSO 5 km/h 9.7 km/h 83% 0.0 mm
06:59 20.3 °C 17.3 °C 1016.1 hPa SSO 5 km/h 8 km/h 83% 0.0 mm
07:04 20.3 °C 17.3 °C 1016.1 hPa SSO 5 km/h 8 km/h 83% 0.0 mm
07:09 20.3 °C 17.3 °C 1016.1 hPa SSO 4.6 km/h 7.4 km/h 83% 0.0 mm
07:14 20.3 °C 17.3 °C 1016.1 hPa SO 3.2 km/h 9.3 km/h 82.7% 0.0 mm
07:19 20.3 °C 17.2 °C 1016.3 hPa SO 3.6 km/h 10 km/h 82% 0.0 mm
07:24 20.4 °C 17.2 °C 1016.3 hPa SO 5 km/h 9.7 km/h 82% 0.0 mm
07:29 20.4 °C 17.2 °C 1016.3 hPa SO 4.6 km/h 8 km/h 82% 0.0 mm
07:34 20.4 °C 17.2 °C 1016.3 hPa SO 3.2 km/h 7.4 km/h 82% 0.0 mm
07:39 20.4 °C 17.2 °C 1016.1 hPa SO 3.3 km/h 8 km/h 82% 0.0 mm
07:44 20.4 °C 17.2 °C 1016.1 hPa SO 3.9 km/h 9.5 km/h 82% 0.0 mm
07:49 20.4 °C 17.2 °C 1016.1 hPa SO 4 km/h 9.7 km/h 82% 0.0 mm
07:54 20.4 °C 17.2 °C 1016.0 hPa SO 4.7 km/h 9.5 km/h 82% 0.0 mm
07:59 20.3 °C 17.2 °C 1016.0 hPa SSO 4.7 km/h 9.7 km/h 82% 0.0 mm
08:04 20.3 °C 17.1 °C 1016.1 hPa SSO 4.7 km/h 8 km/h 82% 0.0 mm
08:09 20.3 °C 17.2 °C 1016.1 hPa SO 4.7 km/h 10.3 km/h 82% 0.0 mm
08:14 20.3 °C 17.2 °C 1016.1 hPa SO 4.7 km/h 11.3 km/h 82% 0.0 mm
08:19 20.4 °C 17.2 °C 1016.2 hPa SO 5 km/h 11.3 km/h 82% 0.0 mm
08:24 20.4 °C 17.2 °C 1016.2 hPa SO 6.4 km/h 16.7 km/h 82% 0.0 mm
08:29 20.4 °C 17.2 °C 1016.2 hPa SO 6.7 km/h 16.1 km/h 82% 0.0 mm
08:34 20.3 °C 17.1 °C 1016.3 hPa SSO 7.6 km/h 12.9 km/h 82% 0.0 mm
08:39 20.3 °C 17.2 °C 1016.3 hPa SSO 7.4 km/h 11.3 km/h 82.5% 0.0 mm
08:44 20.2 °C 17.3 °C 1016.3 hPa SSO 6.9 km/h 13 km/h 83% 0.0 mm
08:49 20.2 °C 17.2 °C 1016.3 hPa SO 7.1 km/h 13.7 km/h 83% 0.0 mm
08:54 20.2 °C 17.2 °C 1016.3 hPa SSO 7.6 km/h 14.5 km/h 83% 0.0 mm
08:59 20.2 °C 17.2 °C 1016.3 hPa SSO 7.4 km/h 14.8 km/h 83% 0.0 mm
09:04 20.2 °C 17.2 °C 1016.4 hPa SSO 6.9 km/h 14.5 km/h 83% 0.0 mm
09:09 20.2 °C 17.2 °C 1016.4 hPa SSO 7.2 km/h 11.9 km/h 83% 0.0 mm
09:14 20.2 °C 17.2 °C 1016.4 hPa SSO 8.4 km/h 13 km/h 83% 0.0 mm
09:19 20.2 °C 17.2 °C 1016.5 hPa SO 8.4 km/h 13.7 km/h 83% 0.0 mm
09:24 20.2 °C 17.2 °C 1016.5 hPa SO 8.7 km/h 14.5 km/h 83% 0.0 mm
09:29 20.2 °C 17 °C 1016.5 hPa SSO 8.5 km/h 13 km/h 82.2% 0.0 mm
09:34 20.2 °C 17.2 °C 1016.5 hPa SSO 7.6 km/h 12.9 km/h 82.7% 0.0 mm
09:39 20.2 °C 17.2 °C 1016.5 hPa SO 7.4 km/h 11.9 km/h 83% 0.0 mm
09:44 20.2 °C 17.1 °C 1016.5 hPa SO 6.9 km/h 13 km/h 82.4% 0.0 mm
09:49 20.3 °C 17.1 °C 1016.8 hPa SSO 7.1 km/h 13 km/h 82% 0.0 mm
09:54 20.3 °C 17.1 °C 1016.8 hPa SSO 7.6 km/h 14.8 km/h 82% 0.0 mm
09:59 20.3 °C 17.1 °C 1016.8 hPa SSO 7.8 km/h 14.5 km/h 82% 0.0 mm
10:04 20.3 °C 17.1 °C 1017.0 hPa SSO 8.7 km/h 11.9 km/h 82% 0.0 mm
10:09 20.4 °C 17.3 °C 1017.0 hPa SO 8.5 km/h 13 km/h 82% 0.0 mm
10:14 20.5 °C 17.1 °C 1017.0 hPa SSO 7.6 km/h 13 km/h 81.1% 0.0 mm
10:19 20.6 °C 17.2 °C 1017.2 hPa SSO 7.8 km/h 13 km/h 81% 0.0 mm
10:24 20.7 °C 17.3 °C 1017.2 hPa SSO 8.7 km/h 14 km/h 81% 0.0 mm
10:29 20.7 °C 17.2 °C 1017.2 hPa SSO 8.9 km/h 15.6 km/h 80.6% 0.0 mm
10:34 20.7 °C 17.1 °C 1017.2 hPa SSO 9.5 km/h 16.1 km/h 80% 0.0 mm
10:39 20.8 °C 17.2 °C 1017.1 hPa SSO 9.5 km/h 14.5 km/h 80% 0.0 mm
10:44 20.8 °C 17.2 °C 1017.1 hPa SSO 9.5 km/h 12.9 km/h 80% 0.0 mm
10:49 20.9 °C 17.3 °C 1017.2 hPa SSO 9.3 km/h 14.8 km/h 80% 0.0 mm
10:54 20.9 °C 17.3 °C 1017.2 hPa SSO 8.4 km/h 14.5 km/h 79.9% 0.0 mm
10:59 21 °C 17.3 °C 1017.2 hPa SSO 8.4 km/h 13.7 km/h 79.1% 0.0 mm
11:04 21.1 °C 17.3 °C 1017.3 hPa Sur 8.4 km/h 14.5 km/h 79% 0.0 mm
11:09 21.1 °C 17.3 °C 1017.3 hPa Sur 8.2 km/h 12.9 km/h 79% 0.0 mm
11:14 21.2 °C 17.4 °C 1017.3 hPa Sur 7.6 km/h 10 km/h 79% 0.0 mm
11:19 21.3 °C 17.4 °C 1017.3 hPa SSO 7.3 km/h 11.1 km/h 78.6% 0.0 mm
11:24 21.4 °C 17.4 °C 1017.3 hPa SSO 6.5 km/h 11.9 km/h 78% 0.0 mm
11:29 21.4 °C 17.3 °C 1017.3 hPa SSO 6.7 km/h 11.3 km/h 77.7% 0.0 mm
11:34 21.5 °C 17.4 °C 1017.3 hPa Sur 7.6 km/h 13 km/h 77.9% 0.0 mm
11:39 21.6 °C 17.4 °C 1017.2 hPa SSO 7.7 km/h 13 km/h 77.1% 0.0 mm
11:44 21.7 °C 17.4 °C 1017.2 hPa Sur 8.4 km/h 13 km/h 77% 0.0 mm
11:49 21.8 °C 17.6 °C 1017.2 hPa Sur 8.4 km/h 12.9 km/h 77% 0.0 mm
11:54 21.9 °C 17.6 °C 1017.1 hPa Sur 8.4 km/h 11.9 km/h 76.2% 0.0 mm
11:59 22.1 °C 17.6 °C 1017.1 hPa SSE 8.2 km/h 13 km/h 75.9% 0.0 mm
12:04 22.1 °C 17.6 °C 1017.2 hPa Sur 7.6 km/h 13.7 km/h 75.6% 0.0 mm
12:09 22.2 °C 17.7 °C 1017.2 hPa Sur 8 km/h 15.6 km/h 75.5% 0.0 mm
12:14 22.3 °C 17.7 °C 1017.2 hPa Sur 9.5 km/h 16.1 km/h 75% 0.0 mm
12:19 22.3 °C 17.7 °C 1017.2 hPa Sur 9.5 km/h 14.8 km/h 75% 0.0 mm
12:24 22.4 °C 17.7 °C 1017.1 hPa Sur 9.5 km/h 15.6 km/h 75% 0.0 mm
12:29 22.5 °C 17.9 °C 1017.1 hPa Sur 9.6 km/h 16.1 km/h 75% 0.0 mm
12:34 22.6 °C 17.9 °C 1017.1 hPa Sur 10 km/h 16.7 km/h 75% 0.0 mm
12:39 22.7 °C 17.9 °C 1017.1 hPa Sur 10 km/h 16.1 km/h 74.5% 0.0 mm
12:44 22.7 °C 17.9 °C 1017.1 hPa SSO 10 km/h 17.2 km/h 74% 0.0 mm
12:49 22.7 °C 17.9 °C 1017.1 hPa SSO 10.2 km/h 18.5 km/h 74% 0.0 mm
12:54 22.7 °C 17.9 °C 1017.1 hPa Sur 11.1 km/h 19.3 km/h 74% 0.0 mm
12:59 22.8 °C 17.9 °C 1017.1 hPa Sur 11.1 km/h 14.8 km/h 74% 0.0 mm
13:04 22.8 °C 18 °C 1017.1 hPa SSO 11.1 km/h 14.5 km/h 74% 0.0 mm
13:09 22.9 °C 18 °C 1017.0 hPa Sur 10.8 km/h 14.8 km/h 73.9% 0.0 mm
13:14 23.1 °C 18 °C 1017.0 hPa Sur 9.5 km/h 14.5 km/h 73.1% 0.0 mm
13:19 23.2 °C 18.1 °C 1017.0 hPa SSE 9.3 km/h 13 km/h 73% 0.0 mm
13:24 23.3 °C 18 °C 1016.8 hPa Sur 8.7 km/h 14.8 km/h 72.1% 0.0 mm
13:29 23.3 °C 18 °C 1016.8 hPa Sur 9 km/h 14.8 km/h 72% 0.0 mm
13:34 23.4 °C 18.1 °C 1016.8 hPa Sur 10 km/h 14.5 km/h 72% 0.0 mm
13:39 23.6 °C 18.1 °C 1016.7 hPa SE 9.5 km/h 12.9 km/h 71.4% 0.0 mm
13:44 23.8 °C 18.3 °C 1016.7 hPa SO 7.6 km/h 11.3 km/h 71.2% 0.0 mm
13:49 24 °C 18.2 °C 1016.7 hPa Oeste 7.2 km/h 11.3 km/h 70.1% 0.0 mm
13:54 24.2 °C 18.3 °C 1016.3 hPa SO 5.8 km/h 10 km/h 69.7% 0.0 mm
13:59 24.2 °C 18.4 °C 1016.3 hPa SO 5.8 km/h 11.1 km/h 69.9% 0.0 mm
14:04 24.3 °C 18.4 °C 1016.3 hPa OSO 5.8 km/h 13.7 km/h 69.8% 0.0 mm
14:09 24.4 °C 18.5 °C 1016.2 hPa OSO 5.6 km/h 14.5 km/h 69.8% 0.0 mm
14:14 24.7 °C 18.6 °C 1016.2 hPa OSO 5 km/h 9.7 km/h 69% 0.0 mm
14:19 25.1 °C 18.8 °C 1016.2 hPa OSO 4.6 km/h 9.7 km/h 68.1% 0.0 mm
14:24 25.4 °C 18.7 °C 1015.8 hPa OSO 3.2 km/h 9.7 km/h 66.8% 0.0 mm
14:29 25.6 °C 18.9 °C 1015.8 hPa SO 3.3 km/h 9.5 km/h 66.4% 0.0 mm
14:34 25.8 °C 18.9 °C 1015.8 hPa Sur 3.9 km/h 9.7 km/h 66% 0.0 mm
14:39 25.7 °C 18.9 °C 1015.8 hPa Este 4.4 km/h 13 km/h 66% 0.0 mm
14:44 25.4 °C 18.8 °C 1015.8 hPa Este 6.4 km/h 12.9 km/h 66.8% 0.0 mm
14:49 25.6 °C 19.1 °C 1015.8 hPa NE 6.1 km/h 13 km/h 67.4% 0.0 mm
14:54 25.7 °C 19.1 °C 1015.6 hPa NNO 4.7 km/h 14.8 km/h 67% 0.0 mm
14:59 25.7 °C 19.1 °C 1015.6 hPa NNO 5.1 km/h 14.5 km/h 67% 0.0 mm
15:04 25.8 °C 19.1 °C 1015.6 hPa NNE 6.4 km/h 18.5 km/h 66.8% 0.0 mm
15:09 25.8 °C 19.2 °C 1015.2 hPa NNE 6.6 km/h 19.3 km/h 67% 0.0 mm
15:14 25.8 °C 19.2 °C 1015.2 hPa NNE 6.9 km/h 14.5 km/h 67% 0.0 mm
15:19 25.7 °C 19.1 °C 1015.2 hPa NNE 7.1 km/h 14.5 km/h 67% 0.0 mm
15:24 25.6 °C 19 °C 1015.1 hPa NE 7.6 km/h 14.8 km/h 67% 0.0 mm
15:29 25.7 °C 19.1 °C 1015.1 hPa NE 7.4 km/h 14.5 km/h 67% 0.0 mm
15:34 25.7 °C 19.1 °C 1015.1 hPa ENE 6.9 km/h 14.8 km/h 67% 0.0 mm
15:39 25.6 °C 19.2 °C 1015.1 hPa NE 7.3 km/h 15.6 km/h 67.8% 0.0 mm
15:44 25.6 °C 19.3 °C 1015.1 hPa ENE 8.7 km/h 16.7 km/h 68% 0.0 mm
15:49 25.7 °C 19.3 °C 1015.1 hPa NE 8.7 km/h 16.1 km/h 67.9% 0.0 mm
15:54 25.7 °C 19.2 °C 1014.9 hPa ENE 8.7 km/h 13.7 km/h 67.5% 0.0 mm
15:59 25.7 °C 19.1 °C 1014.9 hPa ENE 8.3 km/h 14.5 km/h 67% 0.0 mm
16:04 25.8 °C 19.3 °C 1014.9 hPa NE 6.9 km/h 14.5 km/h 67.4% 0.0 mm
16:09 25.8 °C 19.2 °C 1014.6 hPa Este 7.1 km/h 14.8 km/h 67.1% 0.0 mm
16:14 26 °C 19.3 °C 1014.6 hPa ENE 7.6 km/h 14.5 km/h 66.5% 0.0 mm
16:19 26.2 °C 19.3 °C 1014.7 hPa ENE 7.4 km/h 14.8 km/h 65.9% 0.0 mm
16:24 26.2 °C 19.3 °C 1014.7 hPa NE 6.9 km/h 18.3 km/h 65.9% 0.0 mm
16:29 26.1 °C 19.6 °C 1014.7 hPa NE 7.4 km/h 19.3 km/h 67.5% 0.0 mm
16:34 25.9 °C 19.5 °C 1014.7 hPa NE 9.5 km/h 20.1 km/h 68% 0.0 mm
16:39 25.8 °C 19.5 °C 1014.5 hPa ENE 9.5 km/h 20.9 km/h 68.1% 0.0 mm
16:44 25.9 °C 19.3 °C 1014.5 hPa ENE 9.5 km/h 14.5 km/h 67.1% 0.0 mm
16:49 25.9 °C 19.4 °C 1014.5 hPa NE 9.5 km/h 22.5 km/h 67.4% 0.0 mm
16:54 26 °C 19.4 °C 1014.5 hPa NE 9.5 km/h 22.5 km/h 67.1% 0.0 mm
16:59 26 °C 19.1 °C 1014.5 hPa NE 10.4 km/h 22.5 km/h 65.6% 0.0 mm
17:04 25.9 °C 19.3 °C 1014.5 hPa NE 13 km/h 20.9 km/h 66.9% 0.0 mm
17:09 26 °C 19.1 °C 1014.4 hPa NE 12.5 km/h 22.5 km/h 66% 0.0 mm
17:14 25.9 °C 19.6 °C 1014.4 hPa NE 10.3 km/h 22.5 km/h 68.1% 0.0 mm
17:19 25.8 °C 19.7 °C 1014.4 hPa ENE 10.2 km/h 14.8 km/h 69% 0.0 mm
17:24 25.8 °C 19.6 °C 1014.3 hPa ENE 9.5 km/h 17.2 km/h 68.7% 0.0 mm
17:29 25.7 °C 19.5 °C 1014.3 hPa NE 9.5 km/h 18.3 km/h 68.5% 0.0 mm
17:34 25.7 °C 19.6 °C 1014.3 hPa NE 9.5 km/h 20.4 km/h 69% 0.0 mm
17:39 25.8 °C 19.8 °C 1014.1 hPa NE 9.6 km/h 20.9 km/h 69.8% 0.0 mm
17:44 25.8 °C 19.9 °C 1014.1 hPa ENE 10 km/h 20.1 km/h 70% 0.0 mm
17:49 25.9 °C 20 °C 1014.2 hPa Este 9.7 km/h 20.9 km/h 70% 0.0 mm
17:54 25.8 °C 19.9 °C 1014.2 hPa ENE 8.7 km/h 22.2 km/h 70% 0.0 mm
17:59 25.7 °C 19.9 °C 1014.2 hPa ENE 9 km/h 22.5 km/h 70.2% 0.0 mm
18:04 25.6 °C 19.7 °C 1014.2 hPa ENE 10 km/h 22.5 km/h 70% 0.0 mm
18:09 25.6 °C 19.7 °C 1014.2 hPa NE 10.2 km/h 20.9 km/h 70.1% 0.0 mm
18:14 25.6 °C 19.9 °C 1014.2 hPa NE 11.1 km/h 20.9 km/h 70.8% 0.0 mm
18:19 25.6 °C 19.7 °C 1014.2 hPa NE 11.3 km/h 20.9 km/h 70.1% 0.0 mm
18:24 25.5 °C 19.9 °C 1014.0 hPa NE 12.2 km/h 24.1 km/h 70.9% 0.0 mm
18:29 25.5 °C 19.9 °C 1014.0 hPa NE 12.4 km/h 24.1 km/h 71.5% 0.0 mm
18:34 25.4 °C 19.7 °C 1014.0 hPa NE 13 km/h 20.9 km/h 71% 0.0 mm
18:39 25.2 °C 19.8 °C 1013.9 hPa NE 13.4 km/h 25.9 km/h 72% 0.0 mm
18:44 25 °C 19.8 °C 1013.9 hPa NE 14.8 km/h 27 km/h 73% 0.0 mm
18:49 24.9 °C 19.7 °C 1014.1 hPa NE 14.6 km/h 27.8 km/h 73% 0.0 mm
18:54 24.8 °C 19.7 °C 1014.1 hPa NE 14 km/h 24.1 km/h 73% 0.0 mm
18:59 24.8 °C 19.7 °C 1014.1 hPa NE 13.8 km/h 25.9 km/h 73.4% 0.0 mm
19:04 24.7 °C 19.8 °C 1014.1 hPa NE 13 km/h 28.2 km/h 74% 0.0 mm
19:09 24.7 °C 19.8 °C 1014.1 hPa NE 13.6 km/h 27.8 km/h 74% 0.0 mm
19:14 24.6 °C 19.8 °C 1014.1 hPa NE 15.6 km/h 24.1 km/h 74.5% 0.0 mm
19:19 24.5 °C 19.8 °C 1014.2 hPa NE 14.8 km/h 20.9 km/h 75% 0.0 mm
19:24 24.4 °C 19.9 °C 1014.2 hPa NE 11.9 km/h 21.7 km/h 75.9% 0.0 mm
19:29 24.3 °C 19.8 °C 1014.2 hPa NE 12.1 km/h 22.5 km/h 76% 0.0 mm
19:34 24.2 °C 19.8 °C 1014.2 hPa NE 13 km/h 20.4 km/h 76.3% 0.0 mm
19:39 24.2 °C 19.9 °C 1014.2 hPa NE 12.5 km/h 20.9 km/h 77% 0.0 mm
19:44 24.1 °C 19.9 °C 1014.2 hPa NE 10.3 km/h 17.2 km/h 77.7% 0.0 mm
19:49 23.9 °C 19.9 °C 1014.3 hPa NE 10.2 km/h 17.7 km/h 78.2% 0.0 mm
19:54 23.8 °C 20 °C 1014.3 hPa NE 10 km/h 16.1 km/h 79% 0.0 mm
19:59 23.8 °C 20 °C 1014.3 hPa ENE 8.7 km/h 11.3 km/h 79.1% 0.0 mm
20:04 23.7 °C 20.1 °C 1014.4 hPa NE 5 km/h 9.7 km/h 80% 0.0 mm
20:09 23.7 °C 20.1 °C 1014.4 hPa NE 5 km/h 9.7 km/h 80.6% 0.0 mm
20:14 23.6 °C 20.2 °C 1014.4 hPa NE 5 km/h 11.1 km/h 81.1% 0.0 mm
20:19 23.6 °C 20.3 °C 1014.6 hPa NE 5.1 km/h 11.3 km/h 82% 0.0 mm
20:24 23.5 °C 20.2 °C 1014.6 hPa NE 5.8 km/h 11.3 km/h 82% 0.0 mm
20:29 23.5 °C 20.4 °C 1014.6 hPa NE 5.9 km/h 9.7 km/h 83% 0.0 mm
20:34 23.4 °C 20.3 °C 1014.6 hPa NE 6.4 km/h 8 km/h 83% 0.0 mm
20:39 23.4 °C 20.3 °C 1014.6 hPa NE 6.1 km/h 8.4 km/h 83% 0.0 mm
20:44 23.4 °C 20.3 °C 1014.6 hPa NE 5 km/h 8.4 km/h 83% 0.0 mm
20:49 23.3 °C 20.4 °C 1014.8 hPa NNE 4.9 km/h 8 km/h 83.8% 0.0 mm
20:54 23.3 °C 20.4 °C 1014.8 hPa North 4.7 km/h 5.8 km/h 84% 0.0 mm
20:59 23.3 °C 20.4 °C 1014.8 hPa North 4.2 km/h 6.4 km/h 84% 0.0 mm
21:04 23.3 °C 20.4 °C 1014.8 hPa NNE 2.9 km/h 10 km/h 84% 0.0 mm
21:09 23.2 °C 20.3 °C 1014.8 hPa NNE 3.3 km/h 9.7 km/h 84% 0.0 mm
21:14 23.2 °C 20.5 °C 1014.8 hPa NE 5 km/h 11.1 km/h 84.8% 0.0 mm
21:19 23.1 °C 20.4 °C 1014.8 hPa NE 5.3 km/h 11.3 km/h 85% 0.0 mm
21:24 23.1 °C 20.4 °C 1014.7 hPa NNE 6.4 km/h 11.1 km/h 85% 0.0 mm
21:29 23.1 °C 20.5 °C 1014.7 hPa NE 6.1 km/h 11.3 km/h 85.3% 0.0 mm
21:34 23 °C 20.5 °C 1014.9 hPa NE 4.7 km/h 10 km/h 86% 0.0 mm
21:39 22.9 °C 20.4 °C 1014.9 hPa NE 4.7 km/h 9.7 km/h 86% 0.0 mm
21:44 22.9 °C 20.4 °C 1014.9 hPa NE 5 km/h 9.7 km/h 86% 0.0 mm
21:49 22.8 °C 20.5 °C 1014.9 hPa NE 5.1 km/h 11.9 km/h 86.7% 0.0 mm
21:54 22.8 °C 20.5 °C 1014.9 hPa NE 5.8 km/h 11.3 km/h 87% 0.0 mm
21:59 22.8 °C 20.5 °C 1014.9 hPa NE 5.8 km/h 11.3 km/h 87% 0.0 mm
22:04 22.7 °C 20.5 °C 1014.9 hPa NE 5.8 km/h 11.1 km/h 87% 0.0 mm
22:09 22.7 °C 20.5 °C 1014.9 hPa NE 5.9 km/h 13.7 km/h 87.3% 0.0 mm
22:14 22.7 °C 20.6 °C 1014.9 hPa NE 6.4 km/h 14.5 km/h 88% 0.0 mm
22:19 22.7 °C 20.6 °C 1015.0 hPa NE 6.7 km/h 13.7 km/h 88% 0.0 mm
22:24 22.6 °C 20.5 °C 1015.0 hPa NE 7.6 km/h 14.5 km/h 88% 0.0 mm
22:29 22.6 °C 20.5 °C 1015.0 hPa NE 7.7 km/h 14.8 km/h 88% 0.0 mm
22:34 22.6 °C 20.6 °C 1015.0 hPa NE 8.4 km/h 14.5 km/h 88.8% 0.0 mm
22:39 22.5 °C 20.6 °C 1015.0 hPa NE 8.2 km/h 16.1 km/h 89% 0.0 mm
22:44 22.5 °C 20.6 °C 1015.0 hPa NE 7.6 km/h 16.7 km/h 89% 0.0 mm
22:49 22.4 °C 20.5 °C 1015.2 hPa NE 7.7 km/h 13 km/h 89% 0.0 mm
22:54 22.4 °C 20.5 °C 1015.2 hPa NE 8.4 km/h 12.9 km/h 89% 0.0 mm
22:59 22.4 °C 20.5 °C 1015.2 hPa NE 8 km/h 11.3 km/h 89% 0.0 mm
23:04 22.4 °C 20.5 °C 1015.2 hPa NE 6.9 km/h 11.3 km/h 89% 0.0 mm
23:09 22.3 °C 20.4 °C 1015.2 hPa NE 6.9 km/h 11.3 km/h 89% 0.0 mm
23:14 22.3 °C 20.4 °C 1015.2 hPa NE 6.9 km/h 11.3 km/h 89% 0.0 mm
23:19 22.3 °C 20.4 °C 1015.4 hPa NE 6.7 km/h 10 km/h 89% 0.0 mm
23:24 22.2 °C 20.3 °C 1015.4 hPa ENE 5.8 km/h 9.7 km/h 89% 0.0 mm
23:29 22.2 °C 20.3 °C 1015.4 hPa NE 5.6 km/h 9.7 km/h 89% 0.0 mm
23:34 22.2 °C 20.3 °C 1015.4 hPa ENE 4.7 km/h 8 km/h 89% 0.0 mm
23:39 22.2 °C 20.4 °C 1015.4 hPa ENE 4.5 km/h 8.4 km/h 89.6% 0.0 mm
23:44 22.2 °C 20.5 °C 1015.4 hPa NE 3.9 km/h 8 km/h 90% 0.0 mm
23:49 22.2 °C 20.5 °C 1015.5 hPa NE 3.7 km/h 8 km/h 90% 0.0 mm
23:54 22.2 °C 20.5 °C 1015.5 hPa NE 3.2 km/h 7.6 km/h 90% 0.0 mm
23:59 22.2 °C 20.5 °C 1015.5 hPa ENE 3.4 km/h 8 km/h 90% 0.0 mm
Murcia-Puente Tocinos, España
Compliments of Weather Underground - 3 mb

La estación de MeteoMurcia.com, publica sus datos en los siguientes proyectos:

Weather Underground PWS IMURCIAP2 Meteoclimatic www.awekas.at

W3Counter
Web Analytics